createdAt,value
2017-02-02T00:01:05.465Z,73.52
2017-02-02T00:02:16.219Z,73.52
2017-02-02T00:03:26.976Z,73.33
2017-02-02T00:04:37.717Z,73.14
2017-02-02T00:05:48.069Z,73.52
2017-02-02T00:06:58.815Z,73.8
2017-02-02T00:08:09.216Z,73.61
2017-02-02T00:09:19.564Z,73.52
2017-02-02T00:10:30.300Z,73.61
2017-02-02T00:11:40.648Z,73.61
2017-02-02T00:12:50.989Z,73.43
2017-02-02T00:14:01.385Z,73.43
2017-02-02T00:15:11.744Z,73.33
2017-02-02T00:16:21.704Z,73.43
2017-02-02T00:17:32.445Z,73.33
2017-02-02T00:18:43.182Z,73.24
2017-02-02T00:19:53.539Z,73.33
2017-02-02T00:21:04.288Z,73.43
2017-02-02T00:22:15.034Z,73.52
2017-02-02T00:23:25.788Z,73.52
2017-02-02T00:24:36.530Z,72.96
2017-02-02T00:25:47.269Z,73.24
2017-02-02T00:26:57.654Z,73.24
2017-02-02T00:28:08.634Z,73.43
2017-02-02T00:29:19.390Z,73.05
2017-02-02T00:30:28.956Z,73.33
2017-02-02T00:31:38.132Z,73.43
2017-02-02T00:32:48.478Z,73.14
2017-02-02T00:33:58.827Z,73.24
2017-02-02T00:35:09.574Z,73.52
2017-02-02T00:36:20.175Z,73.52
2017-02-02T00:37:30.527Z,73.52
2017-02-02T00:38:41.285Z,73.33
2017-02-02T00:39:52.033Z,73.24
2017-02-02T00:41:02.398Z,73.43
2017-02-02T00:42:12.358Z,73.43
2017-02-02T00:43:22.749Z,73.33
2017-02-02T00:44:33.493Z,73.24
2017-02-02T00:45:43.844Z,73.24
2017-02-02T00:46:54.589Z,73.52
2017-02-02T00:48:04.549Z,73.8
2017-02-02T00:49:14.927Z,73.27
2017-02-02T00:50:25.675Z,73.14
2017-02-02T00:51:36.029Z,73.27
2017-02-02T00:52:46.767Z,73.14
2017-02-02T00:53:57.516Z,72.99
2017-02-02T00:55:07.458Z,73.08
2017-02-02T00:56:17.805Z,73.18
2017-02-02T00:57:28.569Z,73.14
2017-02-02T00:58:38.936Z,73.18
2017-02-02T00:59:49.693Z,73.18
2017-02-02T01:01:00.416Z,73.18
2017-02-02T01:02:11.140Z,73.18
2017-02-02T01:03:21.468Z,72.99
2017-02-02T01:04:31.434Z,73.18
2017-02-02T01:05:41.775Z,73.27
2017-02-02T01:06:52.143Z,72.99
2017-02-02T01:08:02.889Z,73.18
2017-02-02T01:09:13.607Z,73.08
2017-02-02T01:10:24.369Z,72.99
2017-02-02T01:11:35.117Z,72.99
2017-02-02T01:12:45.065Z,72.99
2017-02-02T01:13:55.415Z,73.18
2017-02-02T01:15:05.759Z,73.18
2017-02-02T01:16:16.509Z,73.18
2017-02-02T01:17:27.259Z,73.18
2017-02-02T01:18:38.027Z,73.18
2017-02-02T01:19:48.381Z,73.08
2017-02-02T01:20:59.124Z,73.18
2017-02-02T01:22:09.484Z,73.08
2017-02-02T01:23:19.441Z,72.99
2017-02-02T01:24:29.799Z,72.99
2017-02-02T01:25:40.542Z,73.08
2017-02-02T01:26:50.888Z,73.08
2017-02-02T01:28:01.231Z,73.08
2017-02-02T01:29:11.967Z,73.27
2017-02-02T01:30:22.721Z,73.08
2017-02-02T01:31:33.471Z,73.08
2017-02-02T01:32:43.430Z,73.08
2017-02-02T01:33:53.381Z,72.99
2017-02-02T01:35:04.130Z,73.08
2017-02-02T01:36:14.868Z,73.18
2017-02-02T01:37:25.606Z,72.99
2017-02-02T01:38:35.959Z,72.99
2017-02-02T01:39:46.318Z,73.08
2017-02-02T01:40:57.061Z,73.18
2017-02-02T01:42:07.412Z,73.18
2017-02-02T01:43:18.155Z,73.08
2017-02-02T01:44:28.899Z,73.46
2017-02-02T01:45:39.655Z,73.37
2017-02-02T01:46:49.611Z,73.46
2017-02-02T01:47:59.960Z,72.89
2017-02-02T01:49:10.718Z,72.8
2017-02-02T01:50:21.462Z,73.27
2017-02-02T01:51:31.809Z,73.27
2017-02-02T01:52:42.559Z,72.99
2017-02-02T01:53:53.313Z,73.27
2017-02-02T01:55:03.671Z,73.08
2017-02-02T01:56:14.410Z,73.27
2017-02-02T01:57:24.766Z,72.99
2017-02-02T01:58:35.503Z,72.99
2017-02-02T01:59:46.260Z,72.99
2017-02-02T02:00:56.614Z,73.18
2017-02-02T02:02:07.362Z,73.18
2017-02-02T02:03:17.713Z,72.99
2017-02-02T02:04:28.066Z,73.27
2017-02-02T02:05:39.044Z,72.99
2017-02-02T02:06:49.794Z,73.18
2017-02-02T02:08:00.155Z,73.37
2017-02-02T02:09:10.907Z,73.27
2017-02-02T02:10:21.247Z,73.18
2017-02-02T02:11:31.195Z,73.18
2017-02-02T02:12:41.543Z,72.99
2017-02-02T02:13:52.273Z,73.08
2017-02-02T02:15:01.833Z,73.27
2017-02-02T02:16:12.577Z,73.08
2017-02-02T02:17:22.922Z,73.65
2017-02-02T02:18:33.669Z,73.18
2017-02-02T02:19:44.414Z,73.27
2017-02-02T02:20:54.788Z,73.27
2017-02-02T02:22:04.745Z,73.18
2017-02-02T02:23:15.497Z,72.99
2017-02-02T02:24:26.244Z,72.99
2017-02-02T02:25:36.581Z,73.18
2017-02-02T02:26:47.317Z,73.37
2017-02-02T02:27:58.059Z,73.18
2017-02-02T02:29:08.411Z,72.71
2017-02-02T02:30:19.144Z,72.71
2017-02-02T02:31:29.905Z,72.8
2017-02-02T02:32:40.269Z,72.71
2017-02-02T02:33:50.635Z,72.71
2017-02-02T02:35:00.198Z,72.61
2017-02-02T02:36:10.556Z,72.71
2017-02-02T02:37:20.916Z,72.61
2017-02-02T02:38:31.659Z,73.27
2017-02-02T02:39:42.400Z,72.8
2017-02-02T02:40:52.748Z,72.71
2017-02-02T02:42:03.496Z,72.89
2017-02-02T02:43:13.842Z,73.18
2017-02-02T02:44:24.580Z,73.18
2017-02-02T02:45:34.932Z,73.18
2017-02-02T02:46:45.667Z,73.18
2017-02-02T02:47:56.018Z,73.08
2017-02-02T02:49:06.380Z,72.71
2017-02-02T02:50:17.142Z,72.61
2017-02-02T02:51:27.486Z,72.61
2017-02-02T02:52:38.221Z,72.42
2017-02-02T02:53:48.169Z,72.8
2017-02-02T02:54:58.547Z,72.61
2017-02-02T02:56:09.294Z,72.61
2017-02-02T02:57:19.636Z,72.8
2017-02-02T02:58:29.996Z,72.61
2017-02-02T02:59:40.745Z,72.8
2017-02-02T03:00:50.729Z,72.61
2017-02-02T03:32:48.678Z,70.92
2017-02-02T03:33:59.893Z,71.39
2017-02-02T03:35:10.621Z,72.8
2017-02-02T03:36:21.359Z,73.37
2017-02-02T03:37:31.702Z,74.6
2017-02-02T03:38:42.046Z,74.88
2017-02-02T03:39:52.389Z,75.45
2017-02-02T03:41:02.334Z,75.4
2017-02-02T03:42:12.283Z,75.87
2017-02-02T03:43:22.624Z,75.68
2017-02-02T03:44:32.568Z,75.68
2017-02-02T03:45:43.317Z,75.87
2017-02-02T03:46:53.264Z,75.12
2017-02-02T03:48:03.641Z,75.62
2017-02-02T03:49:13.969Z,75.43
2017-02-02T03:50:24.704Z,74.96
2017-02-02T03:51:35.060Z,74.87
2017-02-02T03:52:45.399Z,74.77
2017-02-02T03:53:56.137Z,74.49
2017-02-02T03:55:06.476Z,74.77
2017-02-02T03:56:16.830Z,74.9
2017-02-02T03:57:27.182Z,74.52
2017-02-02T03:58:37.532Z,74.24
2017-02-02T03:59:47.880Z,74.33
2017-02-02T04:00:57.849Z,74.33
2017-02-02T04:02:08.595Z,74.43
2017-02-02T04:03:19.338Z,73.77
2017-02-02T04:04:29.676Z,73.58
2017-02-02T04:05:40.414Z,73.58
2017-02-02T04:06:50.755Z,73.58
2017-02-02T04:08:00.718Z,73.39
2017-02-02T04:09:11.086Z,73.43
2017-02-02T04:10:21.836Z,73.68
2017-02-02T04:11:32.199Z,73.49
2017-02-02T04:12:42.933Z,73.9
2017-02-02T04:13:53.275Z,73.8
2017-02-02T04:15:04.019Z,73.43
2017-02-02T04:16:14.753Z,73.61
2017-02-02T04:17:25.491Z,73.43
2017-02-02T04:18:35.056Z,73.61
2017-02-02T04:19:44.612Z,73.05
2017-02-02T04:20:55.559Z,73.52
2017-02-02T04:22:05.505Z,73.05
2017-02-02T04:23:16.312Z,72.96
2017-02-02T04:24:27.070Z,73.05
2017-02-02T04:25:37.412Z,73.05
2017-02-02T04:26:47.755Z,73.52
2017-02-02T04:27:58.115Z,73.61
2017-02-02T04:29:08.457Z,73.33
2017-02-02T04:30:18.803Z,73.52
2017-02-02T04:31:29.566Z,73.71
2017-02-02T04:32:39.912Z,73.71
2017-02-02T04:33:50.259Z,73.71
2017-02-02T04:35:00.618Z,73.52
2017-02-02T04:36:10.966Z,73.71
2017-02-02T04:37:21.707Z,73.8
2017-02-02T04:38:32.042Z,73.52
2017-02-02T04:39:41.998Z,73.8
2017-02-02T04:40:51.964Z,73.33
2017-02-02T04:42:02.706Z,73.52
2017-02-02T04:43:13.045Z,73.52
2017-02-02T04:44:23.417Z,73.8
2017-02-02T04:45:34.155Z,73.14
2017-02-02T04:46:43.709Z,73.24
2017-02-02T04:47:54.479Z,73.33
2017-02-02T04:49:04.833Z,73.24
2017-02-02T04:50:15.172Z,73.24
2017-02-02T04:51:25.906Z,73.24
2017-02-02T04:52:36.654Z,73.24
2017-02-02T04:53:46.998Z,73.05
2017-02-02T04:54:57.347Z,73.43
2017-02-02T04:56:08.115Z,72.96
2017-02-02T04:57:18.068Z,73.14
2017-02-02T04:58:28.044Z,72.96
2017-02-02T04:59:38.787Z,73.14
2017-02-02T05:00:49.525Z,72.96
2017-02-02T05:01:59.875Z,72.96
2017-02-02T05:03:09.486Z,73.05
2017-02-02T05:04:19.840Z,73.05
2017-02-02T05:05:30.570Z,73.24
2017-02-02T05:06:40.916Z,72.96
2017-02-02T05:07:51.665Z,73.05
2017-02-02T05:09:02.400Z,73.14
2017-02-02T05:10:13.132Z,73.24
2017-02-02T05:11:23.491Z,73.24
2017-02-02T05:12:34.238Z,73.43
2017-02-02T05:13:43.833Z,73.43
2017-02-02T05:14:54.598Z,73.14
2017-02-02T05:16:05.336Z,73.05
2017-02-02T05:17:16.077Z,73.14
2017-02-02T05:18:26.427Z,73.14
2017-02-02T05:19:37.164Z,73.14
2017-02-02T05:20:47.920Z,73.14
2017-02-02T05:21:58.298Z,73.24
2017-02-02T05:23:08.267Z,72.96
2017-02-02T05:24:19.018Z,72.96
2017-02-02T05:25:29.760Z,73.43
2017-02-02T05:26:39.715Z,73.05
2017-02-02T05:27:49.667Z,73.24
2017-02-02T05:29:00.418Z,73.24
2017-02-02T05:30:11.175Z,73.14
2017-02-02T05:31:21.922Z,73.05
2017-02-02T05:32:32.277Z,73.05
2017-02-02T05:33:42.825Z,73.24
2017-02-02T05:34:53.572Z,73.14
2017-02-02T05:36:04.316Z,73.24
2017-02-02T05:37:15.051Z,73.05
2017-02-02T05:38:25.418Z,73.14
2017-02-02T05:39:35.389Z,73.24
2017-02-02T05:40:45.744Z,73.33
2017-02-02T05:41:56.486Z,73.24
2017-02-02T05:43:07.233Z,73.14
2017-02-02T05:44:17.585Z,73.14
2017-02-02T05:45:27.927Z,73.43
2017-02-02T05:46:38.673Z,73.24
2017-02-02T05:47:49.440Z,73.43
2017-02-02T05:48:59.406Z,73.24
2017-02-02T05:50:10.141Z,73.24
2017-02-02T05:51:20.877Z,73.8
2017-02-02T05:52:31.225Z,73.8
2017-02-02T05:53:41.187Z,73.52
2017-02-02T05:54:51.542Z,73.8
2017-02-02T05:56:02.284Z,73.52
2017-02-02T05:57:12.626Z,73.71
2017-02-02T05:58:22.976Z,73.8
2017-02-02T05:59:33.731Z,73.8
2017-02-02T06:00:44.476Z,73.52
2017-02-02T06:01:54.841Z,73.43
2017-02-02T06:03:04.804Z,73.43
2017-02-02T06:04:15.567Z,73.33
2017-02-02T06:05:26.310Z,73.24
2017-02-02T06:06:36.656Z,73.52
2017-02-02T06:07:47.019Z,73.43
2017-02-02T06:08:56.603Z,73.33
2017-02-02T06:10:06.991Z,73.43
2017-02-02T06:11:17.336Z,73.52
2017-02-02T06:12:27.703Z,73.43
2017-02-02T06:13:38.051Z,73.43
2017-02-02T06:14:48.010Z,73.33
2017-02-02T06:15:58.765Z,73.61
2017-02-02T06:17:09.501Z,73.61
2017-02-02T06:18:20.241Z,73.52
2017-02-02T06:19:30.597Z,73.52
2017-02-02T06:20:41.350Z,73.52
2017-02-02T06:21:51.694Z,73.52
2017-02-02T06:23:02.058Z,73.24
2017-02-02T06:24:12.424Z,73.24
2017-02-02T06:25:22.375Z,73.24
2017-02-02T06:26:32.321Z,73.52
2017-02-02T06:27:42.711Z,73.33
2017-02-02T06:28:53.453Z,73.33
2017-02-02T06:30:04.208Z,73.33
2017-02-02T06:31:14.958Z,73.43
2017-02-02T06:32:25.709Z,73.52
2017-02-02T06:33:35.273Z,73.52
2017-02-02T06:34:46.033Z,73.24
2017-02-02T06:35:56.400Z,73.52
2017-02-02T06:37:06.753Z,73.52
2017-02-02T06:38:17.490Z,73.33
2017-02-02T06:39:28.258Z,73.14
2017-02-02T06:40:38.601Z,72.86
2017-02-02T06:41:49.340Z,73.05
2017-02-02T06:42:59.676Z,73.14
2017-02-02T06:44:10.032Z,72.96
2017-02-02T06:45:20.373Z,73.14
2017-02-02T06:46:31.108Z,73.14
2017-02-02T06:47:41.855Z,73.24
2017-02-02T06:48:52.205Z,73.33
2017-02-02T06:50:02.153Z,72.96
2017-02-02T06:51:12.105Z,73.24
2017-02-02T06:52:23.085Z,72.96
2017-02-02T06:53:33.046Z,73.05
2017-02-02T06:54:43.785Z,72.96
2017-02-02T06:55:54.550Z,72.96
2017-02-02T06:57:05.288Z,73.05
2017-02-02T06:58:15.635Z,73.24
2017-02-02T06:59:26.372Z,73.24
2017-02-02T07:00:36.726Z,72.96
2017-02-02T07:01:47.077Z,73.14
2017-02-02T07:02:57.442Z,73.24
2017-02-02T07:04:07.393Z,73.33
2017-02-02T07:05:17.351Z,72.67
2017-02-02T07:06:28.104Z,72.52
2017-02-02T07:07:38.462Z,72.52
2017-02-02T07:08:49.220Z,72.61
2017-02-02T07:09:59.966Z,72.52
2017-02-02T07:11:10.313Z,72.61
2017-02-02T07:12:20.260Z,72.52
2017-02-02T07:13:29.817Z,72.52
2017-02-02T07:14:40.572Z,72.8
2017-02-02T07:15:51.315Z,72.8
2017-02-02T07:17:02.056Z,72.8
2017-02-02T07:18:12.418Z,72.89
2017-02-02T07:19:23.157Z,72.8
2017-02-02T07:20:33.506Z,72.52
2017-02-02T07:21:44.263Z,72.61
2017-02-02T07:22:54.628Z,72.52
2017-02-02T07:24:04.984Z,72.52
2017-02-02T07:25:14.552Z,72.71
2017-02-02T07:26:24.915Z,72.71
2017-02-02T07:27:34.082Z,72.99
2017-02-02T07:28:44.825Z,72.8
2017-02-02T07:29:54.786Z,72.99
2017-02-02T07:31:04.743Z,72.61
2017-02-02T07:32:14.714Z,72.99
2017-02-02T07:33:25.058Z,72.99
2017-02-02T07:34:35.798Z,72.8
2017-02-02T07:35:45.759Z,72.61
2017-02-02T07:36:56.118Z,72.61
2017-02-02T07:38:06.862Z,72.33
2017-02-02T07:39:17.601Z,73.08
2017-02-02T07:40:28.562Z,72.04
2017-02-02T07:41:38.524Z,72.52
2017-02-02T07:42:49.264Z,72.8
2017-02-02T07:44:00.004Z,72.71
2017-02-02T07:45:10.745Z,72.55
2017-02-02T07:46:21.509Z,72.33
2017-02-02T07:47:31.076Z,72.08
2017-02-02T07:48:41.823Z,72.04
2017-02-02T07:49:52.162Z,72.08
2017-02-02T07:51:02.513Z,72.36
2017-02-02T07:52:13.255Z,72.55
2017-02-02T07:53:23.998Z,72.55
2017-02-02T07:54:33.962Z,72.08
2017-02-02T07:55:44.698Z,72.64
2017-02-02T07:56:55.442Z,72.55
2017-02-02T07:58:05.791Z,72.08
2017-02-02T07:59:15.749Z,72.08
2017-02-02T08:00:26.499Z,72.27
2017-02-02T08:01:37.242Z,71.98
2017-02-02T08:02:47.998Z,72.17
2017-02-02T08:03:57.955Z,72.36
2017-02-02T08:05:07.925Z,72.27
2017-02-02T08:06:18.676Z,72.17
2017-02-02T08:07:29.265Z,72.36
2017-02-02T08:08:39.621Z,72.02
2017-02-02T08:09:50.364Z,71.73
2017-02-02T08:11:01.107Z,71.83
2017-02-02T08:12:11.855Z,71.92
2017-02-02T08:13:22.208Z,71.92
2017-02-02T08:14:32.595Z,71.73
2017-02-02T08:15:42.963Z,72.11
2017-02-02T08:16:52.540Z,72.02
2017-02-02T08:18:03.290Z,71.73
2017-02-02T08:19:13.634Z,71.83
2017-02-02T08:20:23.589Z,72.4
2017-02-02T08:21:33.946Z,72.4
2017-02-02T08:22:44.698Z,72.59
2017-02-02T08:23:55.054Z,71.73
2017-02-02T08:25:05.410Z,71.83
2017-02-02T08:26:15.804Z,71.64
2017-02-02T08:27:26.544Z,71.64
2017-02-02T08:28:37.297Z,71.73
2017-02-02T08:29:48.046Z,72.11
2017-02-02T08:30:58.807Z,71.92
2017-02-02T08:32:09.556Z,71.73
2017-02-02T08:33:19.524Z,72.02
2017-02-02T08:34:30.269Z,72.21
2017-02-02T08:35:41.017Z,72.11
2017-02-02T08:36:51.765Z,72.59
2017-02-02T08:38:02.131Z,72.59
2017-02-02T08:39:12.106Z,72.78
2017-02-02T08:40:22.848Z,72.78
2017-02-02T08:41:33.632Z,72.68
2017-02-02T08:42:43.975Z,72.4
2017-02-02T08:43:54.310Z,72.49
2017-02-02T08:45:03.905Z,72.49
2017-02-02T08:46:13.863Z,72.68
2017-02-02T08:47:24.603Z,72.68
2017-02-02T08:48:34.596Z,72.88
2017-02-02T08:49:44.968Z,72.78
2017-02-02T08:50:55.749Z,72.21
2017-02-02T08:52:06.100Z,72.11
2017-02-02T08:53:16.852Z,72.11
2017-02-02T08:54:27.609Z,72.11
2017-02-02T08:55:38.371Z,72.3
2017-02-02T08:56:49.111Z,72.3
2017-02-02T08:57:59.876Z,72.4
2017-02-02T08:59:09.843Z,71.77
2017-02-02T09:00:20.605Z,71.96
2017-02-02T09:01:30.185Z,71.67
2017-02-02T09:02:40.535Z,71.58
2017-02-02T09:03:50.909Z,71.39
2017-02-02T09:05:00.864Z,71.86
2017-02-02T09:06:10.815Z,71.86
2017-02-02T09:07:21.183Z,71.58
2017-02-02T09:08:31.150Z,71.96
2017-02-02T09:09:41.913Z,71.48
2017-02-02T09:10:52.662Z,71.67
2017-02-02T09:12:02.629Z,71.43
2017-02-02T09:13:13.379Z,71.62
2017-02-02T09:14:24.171Z,71.43
2017-02-02T09:15:34.911Z,71.04
2017-02-02T09:16:45.667Z,70.57
2017-02-02T09:17:56.425Z,70.76
2017-02-02T09:19:07.166Z,71.08
2017-02-02T09:20:17.125Z,70.42
2017-02-02T09:21:27.469Z,70.61
2017-02-02T09:22:37.816Z,70.61
2017-02-02T09:23:48.166Z,70.51
2017-02-02T09:24:58.912Z,70.61
2017-02-02T09:26:08.875Z,70.42
2017-02-02T09:27:19.230Z,70.42
2017-02-02T09:28:29.582Z,71.12
2017-02-02T09:29:39.929Z,70.93
2017-02-02T09:30:49.493Z,71.12
2017-02-02T09:31:59.839Z,70.83
2017-02-02T09:33:10.220Z,71.12
2017-02-02T09:34:20.583Z,71.37
2017-02-02T09:35:31.164Z,71.69
2017-02-02T09:36:41.517Z,72.03
2017-02-02T09:37:52.271Z,71.94
2017-02-02T09:39:03.023Z,71.94
2017-02-02T09:40:12.979Z,72.13
2017-02-02T09:41:22.943Z,72.22
2017-02-02T09:42:33.309Z,71.94
2017-02-02T09:43:44.055Z,72.13
2017-02-02T09:44:54.813Z,72.32
2017-02-02T09:46:05.577Z,72.22
2017-02-02T09:47:16.318Z,72.13
2017-02-02T09:48:27.096Z,72.28
2017-02-02T09:49:37.851Z,72.22
2017-02-02T09:50:48.591Z,72.22
2017-02-02T09:51:59.168Z,72.19
2017-02-02T09:53:09.913Z,72.19
2017-02-02T09:54:20.646Z,72.38
2017-02-02T09:55:31.383Z,72.47
2017-02-02T09:56:41.734Z,72.09
2017-02-02T09:57:51.692Z,72.38
2017-02-02T09:59:02.056Z,72.47
2017-02-02T10:00:12.806Z,72.38
2017-02-02T10:01:23.562Z,72.28
2017-02-02T10:02:33.917Z,72.19
2017-02-02T10:03:43.869Z,72.09
2017-02-02T10:04:54.235Z,72.95
2017-02-02T10:06:04.609Z,72.85
2017-02-02T10:07:14.962Z,72.95
2017-02-02T10:08:24.512Z,72.95
2017-02-02T10:09:35.263Z,72.75
2017-02-02T10:10:45.624Z,72.75
2017-02-02T10:11:56.370Z,73.04
2017-02-02T10:13:07.145Z,72.19
2017-02-02T10:14:17.123Z,72.28
2017-02-02T10:15:27.081Z,72.56
2017-02-02T10:16:37.431Z,71.81
2017-02-02T10:17:47.779Z,71.81
2017-02-02T10:18:58.541Z,71.52
2017-02-02T10:20:09.287Z,71.33
2017-02-02T10:21:20.035Z,71.66
2017-02-02T10:22:30.407Z,71.18
2017-02-02T10:23:40.375Z,70.61
2017-02-02T10:24:50.349Z,70.99
2017-02-02T10:26:00.774Z,71.66
2017-02-02T10:27:11.188Z,71.75
2017-02-02T10:28:21.941Z,71.66
2017-02-02T10:29:32.678Z,71.18
2017-02-02T10:30:43.040Z,71.84
2017-02-02T10:31:53.386Z,71.75
2017-02-02T10:33:03.760Z,72.22
2017-02-02T10:34:13.716Z,72.03
2017-02-02T10:35:24.488Z,72.66
2017-02-02T10:36:35.235Z,72.28
2017-02-02T10:37:45.979Z,72.38
2017-02-02T10:38:56.371Z,72.19
2017-02-02T10:40:06.731Z,72.66
2017-02-02T10:41:16.699Z,72.75
2017-02-02T10:42:27.468Z,72.47
2017-02-02T10:43:37.822Z,72.47
2017-02-02T10:44:48.580Z,72.19
2017-02-02T10:45:58.564Z,72.15
2017-02-02T10:47:08.929Z,72.15
2017-02-02T10:48:19.299Z,72.15
2017-02-02T10:49:30.036Z,72.25
2017-02-02T10:50:39.993Z,72.25
2017-02-02T10:51:49.961Z,72.44
2017-02-02T10:53:00.706Z,72.72
2017-02-02T10:54:11.072Z,73
2017-02-02T10:55:21.843Z,71.96
2017-02-02T10:56:32.199Z,72.15
2017-02-02T10:57:42.557Z,72.34
2017-02-02T10:58:52.915Z,72.34
2017-02-02T11:00:03.685Z,72.25
2017-02-02T11:01:14.072Z,72.25
2017-02-02T11:02:24.845Z,72.25
2017-02-02T11:03:35.601Z,72.25
2017-02-02T11:04:45.642Z,72.06
2017-02-02T11:05:56.402Z,72.25
2017-02-02T11:07:07.202Z,72.25
2017-02-02T11:08:17.183Z,72.25
2017-02-02T11:09:27.537Z,72.44
2017-02-02T11:10:37.507Z,72.44
2017-02-02T11:11:48.334Z,72.34
2017-02-02T11:12:58.285Z,72.06
2017-02-02T11:14:09.080Z,72.53
2017-02-02T11:15:19.453Z,71.86
2017-02-02T11:16:30.205Z,71.67
2017-02-02T11:17:40.948Z,71.77
2017-02-02T11:18:51.294Z,71.77
2017-02-02T11:20:01.305Z,71.77
2017-02-02T11:21:12.059Z,71.71
2017-02-02T11:22:22.827Z,71.23
2017-02-02T11:23:33.593Z,71.14
2017-02-02T11:24:43.588Z,71.04
2017-02-02T11:25:53.144Z,71.62
2017-02-02T11:27:03.498Z,71.43
2017-02-02T11:28:13.854Z,71.62
2017-02-02T11:29:24.235Z,71.62
2017-02-02T11:30:34.582Z,71.52
2017-02-02T11:31:45.329Z,71.66
2017-02-02T11:32:56.114Z,71.81
2017-02-02T11:34:06.121Z,71.62
2017-02-02T11:35:16.879Z,72.09
2017-02-02T11:36:26.844Z,72.09
2017-02-02T11:37:37.590Z,72.22
2017-02-02T11:38:48.374Z,72.13
2017-02-02T11:39:58.762Z,72.03
2017-02-02T11:41:09.537Z,71.94
2017-02-02T11:42:20.313Z,71.84
2017-02-02T11:43:30.656Z,71.94
2017-02-02T11:44:41.022Z,71.46
2017-02-02T11:45:51.765Z,71.46
2017-02-02T11:47:01.739Z,71.75
2017-02-02T11:48:12.102Z,71.66
2017-02-02T11:49:22.476Z,71.84
2017-02-02T11:50:33.220Z,71.75
2017-02-02T11:51:43.571Z,71.84
2017-02-02T11:52:53.918Z,71.94
2017-02-02T11:54:03.880Z,71.27
2017-02-02T11:55:14.257Z,70.79
2017-02-02T11:56:25.023Z,70.89
2017-02-02T11:57:35.781Z,70.36
2017-02-02T11:58:46.582Z,70.54
2017-02-02T11:59:57.340Z,70.36
2017-02-02T12:01:07.756Z,70.36
2017-02-02T12:02:17.718Z,70.54
2017-02-02T12:03:28.470Z,70.64
2017-02-02T12:04:39.344Z,70.64
2017-02-02T12:05:50.148Z,70.45
2017-02-02T12:07:00.504Z,70.74
2017-02-02T12:08:11.296Z,71.22
2017-02-02T12:09:22.053Z,71.5
2017-02-02T12:10:32.405Z,71.46
2017-02-02T12:11:42.353Z,72.22
2017-02-02T12:12:53.107Z,72.13
2017-02-02T12:14:03.865Z,72.03
2017-02-02T12:15:14.210Z,72.7
2017-02-02T12:16:24.804Z,72.41
2017-02-02T12:17:35.157Z,71.94
2017-02-02T12:18:45.512Z,72.03
2017-02-02T12:19:55.878Z,71.84
2017-02-02T12:21:06.232Z,72.03
2017-02-02T12:22:16.592Z,72.51
2017-02-02T12:23:27.354Z,72.41
2017-02-02T12:24:37.316Z,72.41
2017-02-02T12:25:48.070Z,72.32
2017-02-02T12:26:58.832Z,72.32
2017-02-02T12:28:09.179Z,72.51
2017-02-02T12:29:19.932Z,72.41
2017-02-02T12:30:30.670Z,72.41
2017-02-02T12:31:41.033Z,72.6
2017-02-02T12:32:51.801Z,72.51
2017-02-02T12:34:02.185Z,72.41
2017-02-02T12:35:12.548Z,72.13
2017-02-02T12:36:23.294Z,72.13
2017-02-02T12:37:33.239Z,72.51
2017-02-02T12:38:43.973Z,72.09
2017-02-02T12:39:54.313Z,72.22
2017-02-02T12:41:04.715Z,72.22
2017-02-02T12:42:15.466Z,72.09
2017-02-02T12:43:25.830Z,72.13
2017-02-02T12:44:36.181Z,72.09
2017-02-02T12:45:46.139Z,72
2017-02-02T12:46:56.880Z,71.75
2017-02-02T12:48:07.661Z,71.66
2017-02-02T12:49:17.618Z,71.75
2017-02-02T12:50:28.364Z,71.56
2017-02-02T12:51:39.109Z,71.84
2017-02-02T12:52:49.856Z,72
2017-02-02T12:54:00.226Z,72.19
2017-02-02T12:55:09.395Z,72.09
2017-02-02T12:56:19.742Z,72.47
2017-02-02T12:57:30.144Z,72.38
2017-02-02T12:58:40.501Z,72
2017-02-02T12:59:50.864Z,72.85
2017-02-02T13:01:00.826Z,72.85
2017-02-02T13:02:11.575Z,72.56
2017-02-02T13:03:22.322Z,72.47
2017-02-02T13:04:33.125Z,72.28
2017-02-02T13:05:43.896Z,73.14
2017-02-02T13:06:53.466Z,72.34
2017-02-02T13:08:03.834Z,72.44
2017-02-02T13:09:14.587Z,72.81
2017-02-02T13:10:25.344Z,71.96
2017-02-02T13:11:36.306Z,72.15
2017-02-02T13:12:47.059Z,72.06
2017-02-02T13:13:57.407Z,72.72
2017-02-02T13:15:07.773Z,72.91
2017-02-02T13:16:18.528Z,72.63
2017-02-02T13:17:28.886Z,72.44
2017-02-02T13:18:39.241Z,72.53
2017-02-02T13:19:49.633Z,73.1
2017-02-02T13:21:00.419Z,72.25
2017-02-02T13:22:11.165Z,72.25
2017-02-02T13:23:21.545Z,72.34
2017-02-02T13:24:32.293Z,72.72
2017-02-02T13:25:43.027Z,72.25
2017-02-02T13:26:53.785Z,72.44
2017-02-02T13:28:04.145Z,72.53
2017-02-02T13:29:14.537Z,72.49
2017-02-02T13:30:25.293Z,72.49
2017-02-02T13:31:35.670Z,72.59
2017-02-02T13:32:46.446Z,72.4
2017-02-02T13:33:56.819Z,72.49
2017-02-02T13:35:07.578Z,72.49
2017-02-02T13:36:17.548Z,72.49
2017-02-02T13:37:28.288Z,72.4
2017-02-02T13:38:38.649Z,72.4
2017-02-02T13:39:49.412Z,72.4
2017-02-02T13:40:59.765Z,72.4
2017-02-02T13:42:10.143Z,72.3
2017-02-02T13:43:20.491Z,72.11
2017-02-02T13:44:30.840Z,72.4
2017-02-02T13:45:40.795Z,72.59
2017-02-02T13:46:51.153Z,72.59
2017-02-02T13:48:01.946Z,72.68
2017-02-02T13:49:12.335Z,72.21
2017-02-02T13:50:22.542Z,72.11
2017-02-02T13:51:32.939Z,72.21
2017-02-02T13:52:43.432Z,72.59
2017-02-02T13:53:54.192Z,72.88
2017-02-02T13:55:04.978Z,72.88
2017-02-02T13:56:15.342Z,72.64
2017-02-02T13:57:26.094Z,72.84
2017-02-02T13:58:36.440Z,72.45
2017-02-02T13:59:47.199Z,72.84
2017-02-02T14:00:57.558Z,73.03
2017-02-02T14:02:07.900Z,72.84
2017-02-02T14:03:18.636Z,72.84
2017-02-02T14:04:29.382Z,72.84
2017-02-02T14:05:39.764Z,72.93
2017-02-02T14:06:50.523Z,72.84
2017-02-02T14:08:00.478Z,72.84
2017-02-02T14:09:10.444Z,72.84
2017-02-02T14:10:20.781Z,72.64
2017-02-02T14:11:31.545Z,73.03
2017-02-02T14:12:41.904Z,72.84
2017-02-02T14:13:52.266Z,72.84
2017-02-02T14:15:03.007Z,72.74
2017-02-02T14:16:13.359Z,72.84
2017-02-02T14:17:23.705Z,73.03
2017-02-02T14:18:34.462Z,72.74
2017-02-02T14:19:44.824Z,72.55
2017-02-02T14:20:55.580Z,72.64
2017-02-02T14:22:05.539Z,72.84
2017-02-02T14:23:15.890Z,72.84
2017-02-02T14:24:26.249Z,72.74
2017-02-02T14:25:37.004Z,72.84
2017-02-02T14:26:47.755Z,72.84
2017-02-02T14:27:58.118Z,72.84
2017-02-02T14:29:08.854Z,72.64
2017-02-02T14:30:19.199Z,72.84
2017-02-02T14:31:29.614Z,72.84
2017-02-02T14:32:40.391Z,72.84
2017-02-02T14:33:51.157Z,72.93
2017-02-02T14:35:01.520Z,72.84
2017-02-02T14:36:11.878Z,72.64
2017-02-02T14:37:22.636Z,72.84
2017-02-02T14:38:33.377Z,72.74
2017-02-02T14:39:43.733Z,72.27
2017-02-02T14:40:54.486Z,72.36
2017-02-02T14:42:04.448Z,71.89
2017-02-02T14:43:14.418Z,72.64
2017-02-02T14:44:25.167Z,72.55
2017-02-02T14:45:35.927Z,72.08
2017-02-02T14:46:46.279Z,72.08
2017-02-02T14:47:57.024Z,72.08
2017-02-02T14:49:07.787Z,72.93
2017-02-02T14:50:17.753Z,72.36
2017-02-02T14:51:28.117Z,72.17
2017-02-02T14:52:38.861Z,72.74
2017-02-02T14:53:49.617Z,72.84
2017-02-02T14:55:00.356Z,72.84
2017-02-02T14:56:10.312Z,73.03
2017-02-02T14:57:21.094Z,72.93
2017-02-02T14:58:31.869Z,72.93
2017-02-02T14:59:42.280Z,72.84
2017-02-02T15:00:53.481Z,72.74
2017-02-02T15:02:03.429Z,72.93
2017-02-02T15:03:13.782Z,72.55
2017-02-02T15:04:24.160Z,72.84
2017-02-02T15:05:34.934Z,72.64
2017-02-02T15:06:45.285Z,72.64
2017-02-02T15:07:56.028Z,72.64
2017-02-02T15:09:06.792Z,72.64
2017-02-02T15:10:17.546Z,73.22
2017-02-02T15:11:28.294Z,73.31
2017-02-02T15:12:38.647Z,73.18
2017-02-02T15:13:49.007Z,72.99
2017-02-02T15:14:59.765Z,73.03
2017-02-02T15:16:10.164Z,72.99
2017-02-02T15:17:21.011Z,73.18
2017-02-02T15:18:31.367Z,73.18
2017-02-02T15:19:41.343Z,72.99
2017-02-02T15:20:52.102Z,73.22
2017-02-02T15:22:02.856Z,72.89
2017-02-02T15:23:13.230Z,72.99
2017-02-02T15:24:23.976Z,73.08
2017-02-02T15:25:34.731Z,72.99
2017-02-02T15:26:45.505Z,73.27
2017-02-02T15:27:56.271Z,73.08
2017-02-02T15:29:07.040Z,73.08
2017-02-02T15:30:17.818Z,73.37
2017-02-02T15:31:28.569Z,73.08
2017-02-02T15:32:38.940Z,73.18
2017-02-02T15:33:49.699Z,72.99
2017-02-02T15:34:59.292Z,72.89
2017-02-02T15:36:09.702Z,73.65
2017-02-02T15:37:20.532Z,73.75
2017-02-02T15:38:31.322Z,73.18
2017-02-02T15:39:42.110Z,73.18
2017-02-02T15:40:52.932Z,73.65